createdAt,value
2022-11-13T00:00:29.829Z,9.70
2022-11-13T00:03:14.896Z,9.88
2022-11-13T00:06:01.264Z,9.94
2022-11-13T00:08:47.638Z,9.96
2022-11-13T00:11:32.952Z,10.05
2022-11-13T00:14:18.454Z,9.93
2022-11-13T00:17:03.654Z,9.67
2022-11-13T00:19:48.859Z,9.59
2022-11-13T00:22:34.151Z,9.54
2022-11-13T00:25:19.207Z,9.35
2022-11-13T00:28:04.627Z,9.53
2022-11-13T00:30:49.831Z,9.34
2022-11-13T00:34:05.307Z,9.32
2022-11-13T00:36:40.341Z,9.38
2022-11-13T00:39:25.539Z,9.43
2022-11-13T00:42:11.014Z,9.50
2022-11-13T00:44:56.405Z,9.44
2022-11-13T00:47:41.822Z,9.60
2022-11-13T00:50:28.001Z,9.50
2022-11-13T00:53:17.957Z,9.42
2022-11-13T00:56:03.976Z,9.30
2022-11-13T00:58:49.614Z,9.40
2022-11-13T01:01:35.204Z,9.21
2022-11-13T01:04:20.262Z,9.06
2022-11-13T01:07:05.718Z,9.34
2022-11-13T01:09:51.574Z,9.17
2022-11-13T01:12:36.794Z,9.07
2022-11-13T01:15:22.220Z,8.88
2022-11-13T01:18:07.521Z,8.90
2022-11-13T01:21:02.676Z,9.09
2022-11-13T01:23:48.522Z,8.92
2022-11-13T01:26:33.699Z,8.93
2022-11-13T01:29:18.627Z,8.78
2022-11-13T01:32:03.735Z,8.85
2022-11-13T01:34:48.867Z,9.00
2022-11-13T01:37:34.117Z,8.85
2022-11-13T01:40:19.123Z,8.88
2022-11-13T01:43:23.039Z,9.15
2022-11-13T01:46:16.503Z,9.24
2022-11-13T01:49:15.583Z,9.31
2022-11-13T01:52:04.430Z,9.26
2022-11-13T01:54:56.865Z,9.07
2022-11-13T01:57:42.502Z,9.15
2022-11-13T02:00:27.901Z,8.96
2022-11-13T02:03:13.181Z,9.06
2022-11-13T02:05:58.585Z,9.03
2022-11-13T02:08:44.823Z,9.03
2022-11-13T02:11:30.143Z,9.20
2022-11-13T02:14:16.111Z,9.25
2022-11-13T02:17:05.920Z,9.21
2022-11-13T02:19:55.767Z,9.24
2022-11-13T02:22:52.053Z,9.11
2022-11-13T02:25:38.778Z,9.14
2022-11-13T02:28:24.280Z,9.05
2022-11-13T02:31:12.818Z,9.02
2022-11-13T02:33:58.339Z,9.11
2022-11-13T02:36:43.796Z,9.22
2022-11-13T02:39:29.334Z,8.99
2022-11-13T02:42:14.686Z,8.98
2022-11-13T02:45:00.114Z,8.81
2022-11-13T02:47:45.346Z,8.60
2022-11-13T02:50:30.794Z,8.25
2022-11-13T02:53:16.185Z,8.47
2022-11-13T02:56:01.664Z,8.62
2022-11-13T02:58:47.095Z,8.65
2022-11-13T03:01:32.314Z,8.53
2022-11-13T03:04:17.258Z,8.63
2022-11-13T03:07:02.754Z,8.65
2022-11-13T03:09:48.749Z,8.65
2022-11-13T03:12:34.326Z,8.73
2022-11-13T03:15:19.387Z,8.81
2022-11-13T03:18:05.971Z,8.94
2022-11-13T03:20:53.869Z,8.84
2022-11-13T03:23:40.332Z,8.32
2022-11-13T03:26:28.183Z,8.41
2022-11-13T03:29:13.964Z,8.43
2022-11-13T03:31:59.055Z,8.06
2022-11-13T03:34:44.520Z,7.81
2022-11-13T03:37:29.664Z,8.24
2022-11-13T03:40:14.849Z,8.46
2022-11-13T03:43:00.313Z,8.57
2022-11-13T03:45:47.098Z,8.71
2022-11-13T03:48:32.561Z,8.79
2022-11-13T03:51:17.644Z,8.79
2022-11-13T03:54:03.272Z,8.71
2022-11-13T03:56:48.366Z,8.61
2022-11-13T03:59:33.380Z,8.43
2022-11-13T04:02:18.467Z,8.23
2022-11-13T04:05:03.993Z,8.23
2022-11-13T04:07:49.426Z,8.31
2022-11-13T04:10:34.542Z,8.33
2022-11-13T04:13:19.730Z,7.99
2022-11-13T04:16:05.514Z,7.67
2022-11-13T04:18:50.577Z,7.51
2022-11-13T04:21:36.026Z,7.55
2022-11-13T04:24:21.243Z,7.99
2022-11-13T04:27:06.772Z,8.06
2022-11-13T04:29:51.995Z,8.25
2022-11-13T04:32:37.650Z,8.01
2022-11-13T04:35:23.084Z,8.03
2022-11-13T04:38:08.152Z,8.11
2022-11-13T04:41:13.368Z,8.09
2022-11-13T04:43:58.653Z,8.24
2022-11-13T04:46:43.995Z,8.16
2022-11-13T04:49:30.434Z,7.91
2022-11-13T04:52:15.794Z,8.07
2022-11-13T04:55:00.874Z,8.11
2022-11-13T04:57:46.331Z,8.08
2022-11-13T05:00:31.582Z,8.07
2022-11-13T05:03:16.563Z,8.11
2022-11-13T05:06:03.820Z,8.12
2022-11-13T05:08:49.235Z,8.11
2022-11-13T05:11:34.212Z,8.19
2022-11-13T05:14:19.501Z,8.10
2022-11-13T05:17:06.186Z,7.99
2022-11-13T05:19:51.432Z,7.98
2022-11-13T05:22:36.656Z,7.95
2022-11-13T05:25:21.858Z,7.93
2022-11-13T05:28:07.071Z,7.96
2022-11-13T05:30:52.620Z,7.97
2022-11-13T05:33:40.457Z,7.43
2022-11-13T05:36:25.633Z,7.44
2022-11-13T05:39:11.073Z,7.61
2022-11-13T05:41:56.475Z,7.69
2022-11-13T05:44:41.614Z,7.77
2022-11-13T05:47:26.716Z,7.88
2022-11-13T05:50:11.879Z,7.50
2022-11-13T05:52:57.327Z,7.68
2022-11-13T05:55:42.403Z,7.77
2022-11-13T05:58:29.081Z,7.79
2022-11-13T06:01:24.196Z,7.90
2022-11-13T06:04:10.204Z,7.70
2022-11-13T06:06:55.629Z,7.16
2022-11-13T06:09:41.217Z,7.07
2022-11-13T06:12:26.158Z,7.16
2022-11-13T06:15:11.759Z,7.32
2022-11-13T06:17:56.882Z,7.46
2022-11-13T06:20:42.400Z,7.49
2022-11-13T06:23:27.939Z,7.45
2022-11-13T06:26:19.197Z,7.24
2022-11-13T06:29:06.914Z,7.15
2022-11-13T06:31:52.280Z,7.11
2022-11-13T06:34:37.672Z,7.24
2022-11-13T06:37:23.288Z,7.33
2022-11-13T06:40:09.376Z,7.46
2022-11-13T06:42:55.055Z,7.49
2022-11-13T06:45:40.374Z,7.70
2022-11-13T06:48:26.288Z,7.63
2022-11-13T06:51:18.893Z,7.02
2022-11-13T06:54:04.644Z,7.00
2022-11-13T06:56:50.030Z,7.05
2022-11-13T06:59:35.171Z,7.18
2022-11-13T07:02:20.349Z,7.22
2022-11-13T07:05:05.929Z,7.16
2022-11-13T07:07:52.095Z,7.19
2022-11-13T07:10:37.864Z,7.05
2022-11-13T07:13:24.428Z,6.83
2022-11-13T07:16:16.926Z,7.14
2022-11-13T07:19:04.561Z,7.10
2022-11-13T07:21:49.908Z,7.17
2022-11-13T07:24:35.044Z,7.25
2022-11-13T07:27:20.503Z,7.17
2022-11-13T07:30:06.669Z,7.21
2022-11-13T07:32:52.137Z,7.20
2022-11-13T07:35:37.203Z,7.27
2022-11-13T07:38:23.246Z,7.29
2022-11-13T07:41:08.455Z,7.31
2022-11-13T07:43:53.827Z,7.37
2022-11-13T07:46:39.103Z,7.49
2022-11-13T07:49:24.333Z,7.45
2022-11-13T07:52:09.319Z,7.38
2022-11-13T07:54:54.751Z,7.36
2022-11-13T07:57:40.119Z,7.45
2022-11-13T08:00:26.522Z,7.49
2022-11-13T08:03:15.533Z,7.63
2022-11-13T08:06:06.066Z,7.64
2022-11-13T08:08:51.357Z,7.60
2022-11-13T08:11:37.133Z,7.77
2022-11-13T08:14:22.912Z,7.89
2022-11-13T08:17:08.115Z,7.92
2022-11-13T08:19:53.434Z,7.97
2022-11-13T08:22:38.497Z,8.07
2022-11-13T08:25:23.913Z,8.08
2022-11-13T08:28:13.175Z,8.24
2022-11-13T08:30:59.003Z,8.35
2022-11-13T08:33:44.309Z,8.49
2022-11-13T08:36:29.833Z,8.66
2022-11-13T08:39:15.209Z,8.83
2022-11-13T08:42:01.655Z,8.74
2022-11-13T08:44:46.976Z,8.80
2022-11-13T08:47:32.608Z,8.94
2022-11-13T08:50:18.183Z,9.03
2022-11-13T08:53:03.213Z,9.09
2022-11-13T08:55:48.360Z,9.27
2022-11-13T08:58:33.369Z,9.35
2022-11-13T09:01:18.470Z,9.44
2022-11-13T09:04:04.110Z,9.47
2022-11-13T09:06:49.214Z,9.45
2022-11-13T09:09:34.454Z,9.45
2022-11-13T09:12:19.479Z,9.47
2022-11-13T09:15:05.517Z,9.62
2022-11-13T09:17:51.019Z,9.75
2022-11-13T09:20:36.278Z,9.96
2022-11-13T09:23:21.959Z,10.22
2022-11-13T09:26:07.250Z,10.41
2022-11-13T09:28:52.599Z,10.64
2022-11-13T09:31:40.880Z,10.78
2022-11-13T09:34:27.533Z,10.91
2022-11-13T09:37:15.129Z,11.07
2022-11-13T09:40:00.529Z,11.05
2022-11-13T09:42:46.203Z,11.08
2022-11-13T09:45:33.318Z,11.05
2022-11-13T09:48:34.752Z,11.05
2022-11-13T09:51:27.443Z,10.96
2022-11-13T09:54:14.547Z,10.98
2022-11-13T09:57:34.219Z,11.17
2022-11-13T10:00:21.515Z,11.42
2022-11-13T10:03:54.211Z,11.53
2022-11-13T10:06:36.539Z,11.71
2022-11-13T10:09:27.737Z,11.69
2022-11-13T10:12:14.405Z,11.80
2022-11-13T10:15:05.248Z,11.85
2022-11-13T10:18:00.477Z,12.02
2022-11-13T10:20:57.863Z,12.28
2022-11-13T10:23:47.752Z,12.42
2022-11-13T10:26:33.392Z,12.59
2022-11-13T10:29:20.352Z,12.76
2022-11-13T10:32:29.370Z,12.95
2022-11-13T10:35:26.294Z,13.03
2022-11-13T10:38:27.847Z,13.11
2022-11-13T10:41:18.056Z,13.17
2022-11-13T10:44:17.947Z,13.22
2022-11-13T10:47:04.955Z,13.31
2022-11-13T10:49:50.514Z,13.29
2022-11-13T10:52:45.376Z,13.42
2022-11-13T10:55:33.911Z,13.52
2022-11-13T10:58:20.178Z,13.41
2022-11-13T11:01:23.691Z,13.30
2022-11-13T11:04:20.408Z,13.31
2022-11-13T11:07:21.836Z,13.27
2022-11-13T11:10:22.062Z,13.21
2022-11-13T11:13:20.303Z,13.28
2022-11-13T11:16:08.486Z,13.42
2022-11-13T11:19:01.359Z,13.47
2022-11-13T11:21:51.259Z,13.42
2022-11-13T11:24:42.004Z,13.51
2022-11-13T11:27:39.639Z,13.57
2022-11-13T11:30:29.437Z,13.62
2022-11-13T11:33:30.176Z,13.73
2022-11-13T11:36:42.183Z,13.96
2022-11-13T11:39:35.107Z,14.06
2022-11-13T11:42:40.491Z,14.10
2022-11-13T11:45:34.001Z,14.03
2022-11-13T11:48:30.996Z,14.05
2022-11-13T11:51:38.091Z,14.04
2022-11-13T11:54:41.252Z,14.16
2022-11-13T11:57:35.379Z,14.23
2022-11-13T12:00:21.275Z,14.28
2022-11-13T12:03:52.646Z,14.32
2022-11-13T12:06:46.088Z,14.29
2022-11-13T12:09:38.573Z,14.41
2022-11-13T12:12:49.502Z,14.38
2022-11-13T12:15:56.209Z,14.19
2022-11-13T12:19:05.916Z,14.24
2022-11-13T12:22:04.401Z,14.23
2022-11-13T12:25:05.598Z,14.24
2022-11-13T12:28:20.856Z,14.39
2022-11-13T12:31:39.056Z,14.37
2022-11-13T12:34:39.345Z,14.44
2022-11-13T12:37:33.105Z,14.51
2022-11-13T12:40:46.640Z,14.68
2022-11-13T12:43:47.797Z,14.68
2022-11-13T12:46:38.758Z,14.77
2022-11-13T12:49:23.839Z,14.77
2022-11-13T12:52:23.977Z,14.80
2022-11-13T12:55:27.427Z,14.62
2022-11-13T12:58:23.644Z,14.62
2022-11-13T13:01:12.013Z,14.62
2022-11-13T13:04:27.302Z,14.73
2022-11-13T13:07:18.834Z,14.65
2022-11-13T13:10:43.272Z,14.62
2022-11-13T13:13:39.922Z,14.73
2022-11-13T13:16:28.174Z,14.86
2022-11-13T13:19:30.203Z,14.92
2022-11-13T13:22:31.469Z,14.98
2022-11-13T13:25:33.821Z,14.97
2022-11-13T13:28:24.277Z,15.01
2022-11-13T13:31:12.682Z,15.09
2022-11-13T13:34:03.463Z,15.09
2022-11-13T13:37:04.090Z,15.10
2022-11-13T13:40:14.915Z,15.07
2022-11-13T13:43:20.262Z,14.99
2022-11-13T13:46:15.591Z,14.93
2022-11-13T13:49:09.458Z,14.90
2022-11-13T13:51:57.295Z,14.98
2022-11-13T13:54:44.010Z,15.05
2022-11-13T13:57:30.362Z,15.04
2022-11-13T14:00:18.479Z,14.94
2022-11-13T14:03:04.714Z,14.94
2022-11-13T14:05:50.027Z,15.03
2022-11-13T14:08:35.126Z,15.11
2022-11-13T14:11:29.539Z,15.29
2022-11-13T14:14:20.827Z,15.26
2022-11-13T14:17:06.893Z,15.41
2022-11-13T14:19:53.735Z,15.25
2022-11-13T14:22:40.897Z,15.24
2022-11-13T14:25:28.457Z,15.23
2022-11-13T14:28:19.532Z,15.30
2022-11-13T14:31:07.974Z,15.34
2022-11-13T14:33:54.031Z,15.39
2022-11-13T14:36:40.790Z,15.56
2022-11-13T14:39:33.452Z,15.56
2022-11-13T14:42:37.223Z,15.50
2022-11-13T14:45:25.034Z,15.47
2022-11-13T14:48:28.368Z,15.38
2022-11-13T14:51:27.618Z,15.34
2022-11-13T14:55:08.278Z,15.43
2022-11-13T14:57:49.849Z,15.52
2022-11-13T15:00:36.997Z,15.58
2022-11-13T15:03:22.302Z,15.43
2022-11-13T15:06:25.193Z,15.30
2022-11-13T15:09:13.742Z,15.19
2022-11-13T15:11:58.978Z,15.23
2022-11-13T15:14:44.612Z,15.11
2022-11-13T15:17:31.045Z,15.00
2022-11-13T15:20:21.109Z,15.03
2022-11-13T15:23:11.279Z,14.78
2022-11-13T15:25:56.519Z,14.63
2022-11-13T15:28:42.030Z,14.35
2022-11-13T15:31:32.909Z,14.16
2022-11-13T15:34:18.286Z,13.91
2022-11-13T15:37:14.745Z,13.81
2022-11-13T15:39:59.953Z,13.77
2022-11-13T15:42:45.623Z,13.66
2022-11-13T15:45:30.711Z,13.60
2022-11-13T15:48:16.054Z,13.56
2022-11-13T15:51:01.543Z,13.30
2022-11-13T15:53:51.288Z,13.24
2022-11-13T15:56:36.854Z,13.19
2022-11-13T15:59:22.168Z,13.05
2022-11-13T16:02:09.329Z,12.93
2022-11-13T16:04:57.120Z,12.82
2022-11-13T16:07:42.699Z,12.68
2022-11-13T16:10:28.203Z,12.73
2022-11-13T16:13:13.399Z,12.73
2022-11-13T16:15:59.763Z,12.77
2022-11-13T16:18:44.993Z,12.51
2022-11-13T16:21:30.654Z,12.19
2022-11-13T16:24:18.789Z,11.98
2022-11-13T16:27:09.211Z,12.16
2022-11-13T16:29:55.402Z,12.19
2022-11-13T16:32:40.425Z,12.11
2022-11-13T16:35:25.826Z,12.14
2022-11-13T16:38:14.055Z,12.13
2022-11-13T16:40:59.630Z,12.03
2022-11-13T16:43:45.322Z,11.76
2022-11-13T16:46:37.027Z,11.62
2022-11-13T16:49:21.947Z,11.64
2022-11-13T16:52:07.056Z,11.80
2022-11-13T16:54:52.649Z,11.90
2022-11-13T16:57:38.287Z,11.84
2022-11-13T17:00:25.430Z,11.73
2022-11-13T17:03:10.719Z,11.75
2022-11-13T17:05:56.269Z,11.62
2022-11-13T17:08:42.157Z,11.77
2022-11-13T17:11:29.825Z,11.89
2022-11-13T17:14:16.127Z,12.11
2022-11-13T17:17:02.280Z,12.02
2022-11-13T17:19:47.710Z,12.00
2022-11-13T17:22:33.212Z,11.94
2022-11-13T17:25:18.824Z,12.05
2022-11-13T17:28:03.954Z,12.06
2022-11-13T17:30:49.382Z,11.99
2022-11-13T17:33:34.923Z,11.87
2022-11-13T17:36:21.105Z,11.76
2022-11-13T17:39:06.242Z,11.75
2022-11-13T17:41:51.478Z,11.71
2022-11-13T17:44:37.106Z,11.70
2022-11-13T17:47:22.605Z,11.58
2022-11-13T17:50:08.208Z,11.58
2022-11-13T17:52:53.446Z,11.52
2022-11-13T17:55:38.583Z,11.46
2022-11-13T17:58:24.462Z,11.60
2022-11-13T18:01:21.656Z,11.61
2022-11-13T18:04:07.239Z,11.73
2022-11-13T18:06:52.346Z,11.71
2022-11-13T18:09:37.593Z,11.80
2022-11-13T18:12:23.287Z,11.89
2022-11-13T18:15:08.798Z,11.85
2022-11-13T18:17:54.398Z,11.81
2022-11-13T18:20:40.744Z,11.83
2022-11-13T18:23:26.318Z,11.71
2022-11-13T18:26:14.307Z,11.60
2022-11-13T18:29:00.865Z,11.82
2022-11-13T18:31:46.249Z,11.87
2022-11-13T18:34:32.402Z,11.94
2022-11-13T18:37:17.755Z,11.73
2022-11-13T18:40:03.836Z,11.76
2022-11-13T18:42:51.065Z,11.92
2022-11-13T18:45:36.335Z,11.86
2022-11-13T18:48:21.492Z,11.88
2022-11-13T18:51:17.287Z,11.73
2022-11-13T18:54:09.491Z,11.48
2022-11-13T18:56:55.529Z,11.57
2022-11-13T18:59:41.137Z,11.46
2022-11-13T19:02:27.388Z,11.46
2022-11-13T19:05:12.789Z,11.29
2022-11-13T19:07:58.630Z,11.32
2022-11-13T19:10:43.936Z,11.44
2022-11-13T19:13:29.361Z,11.30
2022-11-13T19:16:17.576Z,11.16
2022-11-13T19:19:13.751Z,11.23
2022-11-13T19:21:59.128Z,11.15
2022-11-13T19:24:44.463Z,11.21
2022-11-13T19:27:29.763Z,11.37
2022-11-13T19:30:14.887Z,11.53
2022-11-13T19:33:00.160Z,11.63
2022-11-13T19:35:45.361Z,11.67
2022-11-13T19:38:31.090Z,11.57
2022-11-13T19:41:17.682Z,11.40
2022-11-13T19:44:03.471Z,11.35
2022-11-13T19:46:50.485Z,11.42
2022-11-13T19:49:39.284Z,11.37
2022-11-13T19:52:24.653Z,11.25
2022-11-13T19:55:10.088Z,11.38
2022-11-13T19:57:55.637Z,11.38
2022-11-13T20:00:40.925Z,11.40
2022-11-13T20:03:27.284Z,11.39
2022-11-13T20:06:14.985Z,11.43
2022-11-13T20:09:01.378Z,11.19
2022-11-13T20:11:46.761Z,11.22
2022-11-13T20:14:35.669Z,11.14
2022-11-13T20:17:23.874Z,10.72
2022-11-13T20:20:09.418Z,10.81
2022-11-13T20:22:54.862Z,10.77
2022-11-13T20:25:40.081Z,10.88
2022-11-13T20:28:26.839Z,10.90
2022-11-13T20:31:23.767Z,10.88
2022-11-13T20:34:09.106Z,10.88
2022-11-13T20:36:54.565Z,10.95
2022-11-13T20:39:41.765Z,10.93
2022-11-13T20:42:27.597Z,10.92
2022-11-13T20:45:12.889Z,10.92
2022-11-13T20:47:58.306Z,10.83
2022-11-13T20:50:43.494Z,10.79
2022-11-13T20:53:28.565Z,10.76
2022-11-13T20:56:13.643Z,10.60
2022-11-13T20:58:59.379Z,10.57
2022-11-13T21:01:44.574Z,10.50
2022-11-13T21:04:29.653Z,10.42
2022-11-13T21:07:15.192Z,10.44
2022-11-13T21:10:01.813Z,10.25
2022-11-13T21:12:47.177Z,10.26
2022-11-13T21:15:33.805Z,10.26
2022-11-13T21:18:20.522Z,10.32
2022-11-13T21:21:19.144Z,10.28
2022-11-13T21:24:04.403Z,10.20
2022-11-13T21:26:49.934Z,10.17
2022-11-13T21:29:35.214Z,10.19
2022-11-13T21:32:20.667Z,10.03
2022-11-13T21:35:06.418Z,9.88
2022-11-13T21:37:51.541Z,9.72
2022-11-13T21:40:36.956Z,9.66
2022-11-13T21:43:22.498Z,9.82
2022-11-13T21:46:08.723Z,9.81
2022-11-13T21:48:57.035Z,9.75
2022-11-13T21:51:43.271Z,9.77
2022-11-13T21:54:28.475Z,9.56
2022-11-13T21:57:14.280Z,9.55
2022-11-13T21:59:59.465Z,9.41
2022-11-13T22:02:44.654Z,9.52
2022-11-13T22:05:30.032Z,9.70
2022-11-13T22:08:15.431Z,9.80
2022-11-13T22:11:00.522Z,9.62
2022-11-13T22:13:45.749Z,9.36
2022-11-13T22:16:33.543Z,9.47
2022-11-13T22:19:24.007Z,9.53
2022-11-13T22:22:12.626Z,9.50
2022-11-13T22:24:58.069Z,9.49
2022-11-13T22:27:43.392Z,9.47
2022-11-13T22:30:28.373Z,9.51
2022-11-13T22:33:14.100Z,9.44
2022-11-13T22:36:01.399Z,9.38
2022-11-13T22:38:47.460Z,9.31
2022-11-13T22:41:34.598Z,9.18
2022-11-13T22:44:19.814Z,9.14
2022-11-13T22:47:05.310Z,8.99
2022-11-13T22:49:50.518Z,8.67
2022-11-13T22:52:35.794Z,8.35
2022-11-13T22:55:21.288Z,8.45
2022-11-13T22:58:06.514Z,8.40
2022-11-13T23:00:52.253Z,8.48
2022-11-13T23:03:38.960Z,8.47
2022-11-13T23:06:27.867Z,8.31
2022-11-13T23:09:13.230Z,8.05
2022-11-13T23:11:58.834Z,7.75
2022-11-13T23:14:44.085Z,7.83
2022-11-13T23:17:29.491Z,8.03
2022-11-13T23:20:14.656Z,8.23
2022-11-13T23:22:59.895Z,8.19
2022-11-13T23:25:44.976Z,8.11
2022-11-13T23:28:30.517Z,8.05
2022-11-13T23:31:16.324Z,8.07
2022-11-13T23:34:03.055Z,8.15
2022-11-13T23:36:48.290Z,7.96
2022-11-13T23:39:33.381Z,7.78
2022-11-13T23:42:33.328Z,7.94
2022-11-13T23:45:23.658Z,7.88
2022-11-13T23:48:09.002Z,7.83
2022-11-13T23:50:54.408Z,7.76
2022-11-13T23:53:39.652Z,7.72
2022-11-13T23:56:24.774Z,7.49
2022-11-13T23:59:10.039Z,7.66
